createdAt,value
2023-03-22T04:52:20.802Z,10.68
2023-03-22T05:08:58.789Z,10.37
2023-03-22T05:13:11.719Z,10.37
2023-03-22T05:21:18.970Z,10.19
2023-03-22T06:56:18.528Z,11.29
2023-03-22T07:00:19.394Z,11.46
2023-03-22T07:04:19.495Z,11.60
2023-03-22T07:08:19.320Z,11.67
2023-03-22T07:12:19.325Z,11.82
2023-03-22T07:16:20.018Z,12.06
2023-03-22T07:20:19.529Z,12.19
2023-03-22T07:24:19.804Z,12.41
2023-03-22T07:28:18.826Z,11.96
2023-03-22T07:32:18.899Z,12.47
2023-03-22T07:36:18.863Z,12.51
2023-03-22T07:40:19.528Z,12.77
2023-03-22T07:44:19.941Z,12.73
2023-03-22T08:05:37.168Z,12.85
2023-03-22T08:13:56.079Z,13.16
2023-03-22T08:17:57.034Z,13.19
2023-03-22T08:21:56.217Z,13.47
2023-03-22T08:25:56.157Z,13.23
2023-03-22T08:29:55.731Z,13.53
2023-03-22T08:33:56.125Z,13.74
2023-03-22T08:37:56.063Z,13.91
2023-03-22T08:46:14.908Z,14.12
2023-03-22T09:23:13.466Z,15.26
2023-03-22T09:31:32.609Z,15.58
2023-03-22T09:39:51.895Z,15.87
2023-03-22T09:43:52.448Z,16.23
2023-03-22T09:47:52.203Z,16.43
2023-03-22T09:51:52.124Z,16.52
2023-03-22T10:00:11.859Z,16.82
2023-03-22T10:08:29.937Z,17.09
2023-03-22T10:12:30.005Z,17.28
2023-03-22T10:16:29.597Z,17.47
2023-03-22T10:20:29.483Z,17.53
2023-03-22T10:24:29.031Z,17.73
2023-03-22T10:28:28.480Z,17.35
2023-03-22T10:32:28.513Z,17.59
2023-03-22T10:36:29.047Z,18.01
2023-03-22T10:40:27.985Z,17.95
2023-03-22T10:44:27.763Z,18.35
2023-03-22T10:48:27.179Z,18.29
2023-03-22T10:52:26.968Z,18.36
2023-03-22T10:56:26.487Z,18.84
2023-03-22T11:00:26.582Z,18.67
2023-03-22T11:04:25.515Z,19.05
2023-03-22T11:08:25.842Z,19.08
2023-03-22T11:12:25.063Z,18.83
2023-03-22T11:16:24.615Z,19.11
2023-03-22T11:20:24.144Z,19.22
2023-03-22T11:24:24.046Z,19.56
2023-03-22T11:28:23.482Z,19.63
2023-03-22T11:32:23.710Z,19.29
2023-03-22T11:36:22.957Z,19.59
2023-03-22T11:47:21.009Z,19.97
2023-03-22T11:55:40.015Z,19.92
2023-03-22T11:59:40.602Z,19.84
2023-03-22T12:03:39.930Z,20.02
2023-03-22T12:11:58.221Z,20.40
2023-03-22T12:15:59.050Z,20.39
2023-03-22T12:19:58.522Z,20.32
2023-03-22T12:23:58.405Z,20.39
2023-03-22T12:27:58.474Z,20.24
2023-03-22T12:31:58.657Z,20.18
2023-03-22T12:35:58.686Z,20.22
2023-03-22T12:39:58.604Z,20.21
2023-03-22T12:43:58.594Z,20.22
2023-03-22T12:47:59.083Z,20.31
2023-03-22T12:51:58.487Z,20.14
2023-03-22T12:55:58.505Z,20.21
2023-03-22T12:59:58.641Z,20.43
2023-03-22T13:14:03.104Z,20.46
2023-03-22T13:22:21.048Z,20.60
2023-03-22T13:30:40.289Z,21.05
2023-03-22T14:54:01.574Z,21.21
2023-03-22T15:07:56.203Z,21.19
2023-03-22T15:11:56.728Z,21.22
2023-03-22T15:21:24.610Z,21.16
2023-03-22T15:25:26.384Z,21.15
2023-03-22T15:29:26.345Z,21.24
2023-03-22T15:33:26.973Z,21.14
2023-03-22T15:41:44.403Z,21.07
2023-03-22T15:45:44.969Z,21.14
2023-03-22T15:49:42.845Z,21.12
2023-03-22T16:21:10.594Z,20.49
